Charlottesville, Virginia
Current Conditions -  °F | °C
As of 11:53 AM on Thursday 30 Oct 2014 (Local Time) from KCHO Reporting Station
Clear Clear  
Wind Chill: 58°   Ceiling: Unl
Heat Index: 58°   Visibility: 9mi
Dew Point: 36°   Wind: 8mph
Humidity: 44%   Direction: 340°NNW
Pressure: 30.08"   Gusts: NA
Location:  38.03°N, 78.48°W
Report Text: KCHO 301553Z 34007KT 9SM CLR 14/02 A3008 RMK AO2 SLP182 T01440022
Loading
Personal Weather Stations






























Interactive Weather Map
Tropical Storm Tracking
New forecast layout! Learn more

10-Day Weather Forecast

Advertisements
Track Severe Weather on mobile